Tiempo atmosférico en la estación meteorológica de Huesca Aeropuerto, Huesca (541 m.)



Fecha
DESCASC
Temp. máxima en grados centígrados (hora)
DESCASC
Temp. mínima en grados centígrados (hora)
DESCASC
Temp. media en grados centígrados
DESCASC
Racha de viento máxima en m/sg (hora)
DESCASC
Velocidad máxima media en intervalos de 10 minutos(hora)
DESCASC
Precipitaciones diarias en mm
DESCASC
Precipitaciones de 00:00 a 06:00 en mm
DESCASC
Precipitaciones de 06:00 a 12:00 en mm
DESCASC
Precipitaciones de 12:00 a 18:00 en mm
DESCASC
Precipitaciones de 18:00 a 24:00 en mm
DESCASC
23-06-2019 34.7 (17:10) 17 (07:00) 25.9 9.44 (20:40) 5.83 (20:50) 0 0 0 0 0
22-06-2019 30 (19:10) 11.2 (04:50) 20.6 6.11 (23:59) 4.17 (23:59) 0 0 0 0 0
21-06-2019 26.7 (18:40) 15.2 (06:40) 21 7.5 (19:40) 3.06 (17:30) 0.8 0 0.8 0 0
20-06-2019 29.6 (16:10) 15.9 (00:00) 22.8 11.39 (18:00) 6.39 (19:50) 0 0 0 0 0
19-06-2019 30.1 (17:00) 14.4 (00:00) 22.3 7.78 (00:40) 4.72 (00:10) 0 0 0 0 0
18-06-2019 33.3 (16:40) 18.2 (00:00) 25.8 10.28 (11:00) 6.39 (09:40) 0 0 0 0 0
17-06-2019 32.5 (17:30) 14.5 (00:00) 23.5 8.33 (23:40) 5 (23:50) 0 0 0 0 0
16-06-2019 29.1 (18:20) 10 (00:00) 19.6 6.94 (08:40) 4.72 (08:40) 0 0 0 0 0
15-06-2019 26.2 (17:20) 10.5 (00:00) 18.4 10.28 (14:50) 4.17 (15:40) 0 0 0 0 0
14-06-2019 27.1 (19:20) 13.2 (00:00) 20.2 7.22 (12:30) 4.17 (00:50) 0.6 0 0.4 0.2 0
13-06-2019 26.2 (18:30) 11.5 (00:00) 18.9 11.67 (12:10) 7.5 (12:10) 0 0 0 0 0
12-06-2019 22.6 (16:40) 6.2 (00:00) 14.4 7.5 (13:50) 5 (21:30) 0 0 0 0 0
11-06-2019 19.6 (17:10) 9.4 (00:00) 14.5 11.39 (20:00) 4.44 (20:00) 1 0.8 0.2 0 0
10-06-2019 24.3 (15:50) 10.9 (00:00) 17.6 12.22 (16:20) 4.17 (15:50) 0.2 0.2 0 0 0
09-06-2019 28.7 (18:20) 15 (00:00) 21.9 10 (00:10) 5.83 (00:10) 0 0 0 0 0
08-06-2019 25.4 (16:40) 10.1 (00:00) 17.8 10.83 (20:00) 6.11 (19:50) 0 0 0 0 0
07-06-2019 22.4 (17:40) 11.4 (00:00) 16.9 11.39 (02:10) 6.94 (02:00) 4.4 0 4.4 0 0
06-06-2019 24.3 (16:10) 8.2 (00:00) 16.2 15.83 (20:20) 9.44 (17:20) 0 0 0 0 0
05-06-2019 19.3 (00:00) 10.5 (00:00) 14.9 12.78 (17:00) 5.83 (00:10) 3.8 0 3.8 0 0
04-06-2019 31.4 (16:20) 15.7 (00:00) 23.5 12.5 (21:00) 8.33 (21:20) 0 0 0 0 0
03-06-2019 31.2 (16:00) 16.1 (00:00) 23.7 9.72 (23:10) 6.11 (01:50) 0 0 0 0 0
02-06-2019 32.7 (16:50) 15.3 (00:00) 24 8.89 (20:30) 5 (20:40) 0 0 0 0 0
01-06-2019 30.5 (18:50) 13.9 (00:00) 22.2 7.22 (00:20) 4.17 (00:50) 0 0 0 0 0
31-05-2019 28.3 (16:10) 12.7 (00:00) 20.5 7.5 (00:30) 4.44 (00:30) 0 0 0 0 0
30-05-2019 27.8 (18:10) 9.3 (00:00) 18.5 8.33 (16:50) 3.61 (23:59) 0 0 0 0 0
29-05-2019 23.2 (16:10) 8.2 (00:00) 15.7 10.56 (17:50) 5 (17:50) 0 0 0 0 0
28-05-2019 22.1 (13:30) 9.5 (00:00) 15.8 14.17 (20:30) 5 (17:10) 0 0 0 0 0

Gráficas

Temp. máximas Temp. mínimas Temp. medias Precipitaciones Rachas de viento máximas Velocidades máximas media en intervalos de 10 minutos

Datos horarios

Fecha y hora oficial Temperatura (ºC) Velocidad del viento (km/h) Dirección del viento Racha (km/h) Dirección de racha Precipitación (mm) Presión (hPa) Tendencia (hPa) Humedad (%)
2019-06-26 23:00:00 27.1 25 Sudeste 36 Sudeste 0 956 2.3 31
2019-06-26 22:00:00 28.7 22 Este 44 Este 0 955.1 2 29
2019-06-26 21:00:00 30.7 28 Sudeste 54 Este 0 954.2 1.1 27
2019-06-26 20:00:00 32.6 30 Sudeste 49 Sudeste 0 953.7 0.2 26
2019-06-26 19:00:00 34.2 32 Sudeste 51 Sur 0 953.1 -0.7 22
2019-06-26 18:00:00 35.3 32 Sudeste 55 Este 0 953.1 -1.1 21
2019-06-26 17:00:00 36 29 Sudeste 51 Sudeste 0 953.5 -0.9 21
2019-06-26 16:00:00 35.7 30 Sudeste 55 Sudeste 0 953.8 -0.9 21
2019-06-26 15:00:00 35.3 29 Sudeste 54 Sudeste 0 954.2 -0.6 21
2019-06-26 14:00:00 34.7 32 Sudeste 52 Sudeste 0 954.4 -0.5 21
2019-06-26 13:00:00 34.4 33 Sudeste 49 Sudeste 0 954.7 0.2 19
2019-06-26 12:00:00 33.6 25 Sudeste 44 Sudeste 0 954.8 0.3 21
2019-06-26 11:00:00 32.1 29 Sudeste 53 Sudeste 0 954.9 0.7 22
2019-06-26 10:00:00 30.8 28 Sudeste 44 Sudeste 0 954.5 0.4 22
2019-06-26 09:00:00 28 20 Este 35 Este 0 954.5 0.4 29
2019-06-26 08:00:00 24 19 Sudeste 28 Sudeste 0 954.2 0 41
2019-06-26 07:00:00 21.2 17 Este 27 Sudeste 0 954.1 -0.2 52
2019-06-26 06:00:00 20 17 Este 25 Este 0 954.1 -0.3 64
2019-06-26 05:00:00 20 17 Este 28 Este 0 954.2 -0.2 72
2019-06-26 04:00:00 20.2 14 Este 26 Este 0 954.3 0.6 74
2019-06-26 03:00:00 21 17 Este 28 Este 0 954.4 0.8 72
2019-06-26 02:00:00 21.5 15 Este 35 Este 0 954.4 1.2 71
2019-06-26 01:00:00 22 22 Este 33 Este 0 953.7 1.7 69
2019-06-26 00:00:00 23.7 20 Este 35 Este 0 953.6 2.3 62
2019-06-25 23:00:00 25.2 19 Este 33 Sudeste 0 953.2 2.3 56
2019-06-25 22:00:00 27.8 18 Sudeste 30 Sudeste 0 952 1 48
2019-06-25 21:00:00 30.6 14 Sudeste 44 Sudeste 0 951.3 0 36
2019-06-25 20:00:00 32.8 25 Sudeste 42 Sudeste 0 950.9 -0.6 32
2019-06-25 19:00:00 33.7 23 Sudeste 42 Sudeste 0 951 -1.1 32
2019-06-25 18:00:00 33.7 23 Sudeste 36 Sudeste 0 951.3 -1.5 35
2019-06-25 17:00:00 34.1 23 Sudeste 36 Sudeste 0 951.5 -1.9 33
2019-06-25 16:00:00 33.3 20 Sudeste 35 Sudeste 0 952.1 -1.1 33
2019-06-25 15:00:00 31.6 17 Sudeste 34 Sudeste 0 952.8 -0.4 38
2019-06-25 14:00:00 30.5 17 Sudeste 37 Sudeste 0 953.4 0.2 37
2019-06-25 13:00:00 29.8 21 Sudeste 35 Este 0 953.2 -0.2 36
2019-06-25 12:00:00 28.3 20 Sudeste 33 Este 0 953.2 0.2 40
2019-06-25 11:00:00 27 12 Este 22 Este 0 953.2 0.7 36
2019-06-25 10:00:00 24.7 12 Sudeste 20 Sudeste 0 953.4 1.4 43
2019-06-25 09:00:00 23.2 8 Sudeste 15 Este 0 953 1.2 52
2019-06-25 08:00:00 20.4 4 Sudeste 9 Sudeste 0 952.5 1 57
2019-06-25 07:00:00 16.9 6 Este 9 Este 0 952 0.6 66
2019-06-25 06:00:00 17.1 8 Este 17 Sudeste 0 951.8 -0.2 64
2019-06-25 05:00:00 18.7 13 Este 25 Este 0 951.5 -0.4 59
2019-06-25 04:00:00 19.7 17 Este 30 Este 0 951.4 -0.5 52
2019-06-25 03:00:00 19.6 9 Este 18 Este 0 952 0.4 48
2019-06-25 02:00:00 19.9 9 Este 21 Este 0 951.9 0.5 49
2019-06-25 01:00:00 20.5 12 Este 21 Este 0 951.9 1.5 47
2019-06-25 00:00:00 21.9 14 Este 22 Este 0 951.6 1.9 43
2019-06-24 23:00:00 23.4 11 Este 19 Sudeste 0 951.4 2.4 36
2019-06-24 22:00:00 25.4 13 Sudeste 25 Sudeste 0 950.4 1.4 32
2019-06-24 21:00:00 27.9 18 Sudeste 33 Sudeste 0 949.7 0.5 27
2019-06-24 20:00:00 29.5 22 Sudeste 40 Sudeste 0 949 -0.4 28
2019-06-24 19:00:00 30.6 23 Sudeste 41 Sudeste 0 949 -0.9 27
2019-06-24 18:00:00 31.7 24 Sudeste 44 Sudeste 0 949.2 -1.4 24
2019-06-24 17:00:00 31.3 24 Sudeste 42 Este 0 949.4 -1.8 20
2019-06-24 16:00:00 32.9 21 Sudeste 39 Sudeste 0 949.9 -1.6 17
2019-06-24 15:00:00 32.1 19 Sudeste 39 Sudeste 0 950.6 -0.8 19
2019-06-24 14:00:00 30.2 20 Sudeste 37 Sudeste 0 951.2 -0.3 22
2019-06-24 13:00:00 30.1 20 Sudeste 40 Sur 0 951.5 0.2 22
2019-06-24 12:00:00 28.8 24 Sudeste 43 Sudeste 0 951.4 -0.1 25
2019-06-24 11:00:00 27.5 20 Sudeste 36 Sudeste 0 951.5 0.3 26
2019-06-24 10:00:00 27.5 22 Sudeste 38 Sudeste 0 951.3 0 26
2019-06-24 09:00:00 25.5 20 Sudeste 32 Sudeste 0 951.5 0.5 29
2019-06-24 08:00:00 22.4 18 Este 28 Este 0 951.2 -0.2 38
2019-06-24 07:00:00 20.7 14 Este 33 Este 0 951.3 0.2 39
2019-06-24 06:00:00 21.4 17 Este 30 Este 0 951 -0.2 37
2019-06-24 05:00:00 21.9 19 Este 36 Este 0 951.4 0.5 37
2019-06-24 04:00:00 21.8 21 Este 40 Este 0 951.1 0.5 37
2019-06-24 03:00:00 22 20 Este 40 Este 0 951.2 0.7 40
2019-06-24 02:00:00 22.7 19 Este 32 Sudeste 0 950.9 0.8 37
2019-06-24 01:00:00 22.8 16 Este 34 Este 0 950.6 1.2 36
2019-06-24 00:00:00 23.8 18 Este 34 Este 0 950.5 1.7 36
2019-06-23 23:00:00 24.2 19 Este 34 Este 0 950.1 1.6 36
2019-06-23 22:00:00 25.6 18 Este 31 Este 0 949.4 1.2 36
2019-06-23 21:00:00 28.1 18 Sudeste 34 Sudeste 0 948.8 0.3 34
2019-06-23 20:00:00 31.1 16 Sudeste 29 Sudeste 0 948.5 -0.4 33
2019-06-23 19:00:00 32.4 15 Sudeste 28 Sudeste 0 948.2 -1.3 26
2019-06-23 18:00:00 33.1 15 Sudeste 26 Sudeste 0 948.5 -1.5 25
2019-06-23 17:00:00 34.5 14 Sudeste 31 Sudeste 0 948.9 -1.6 23
2019-06-23 16:00:00 33.7 13 Sudeste 27 Sudeste 0 949.5 -1.3 26
2019-06-23 15:00:00 32.6 13 Sudeste 26 Sur 0 950 -0.9 27
2019-06-23 14:00:00 31.8 13 Sudeste 27 Este 0 950.5 -0.7 31
2019-06-23 13:00:00 30 17 Sudeste 30 Sudeste 0 950.8 -0.4 35
2019-06-23 12:00:00 28.8 17 Sudeste 31 Sudeste 0 950.9 -0.1 36
2019-06-23 11:00:00 26.8 17 Sudeste 32 Sudeste 0 951.2 0.5 40
2019-06-23 10:00:00 25 18 Este 30 Sudeste 0 951.2 0.9 44
2019-06-23 09:00:00 23 16 Este 23 Este 0 951 0.7 49
2019-06-23 08:00:00 19.1 10 Este 19 Este 0 950.7 0.9 65
2019-06-23 07:00:00 17 10 Este 24 Este 0 950.3 0.1 72
2019-06-23 06:00:00 17.8 10 Este 26 Este 0 950.3 0.2 70
2019-06-23 05:00:00 18.4 19 Este 30 Este 0 949.8 -0.8 70
2019-06-23 04:00:00 18.3 16 Sudeste 24 Este 0 950.2 -0.6 73
2019-06-23 03:00:00 19.1 17 Este 28 Este 0 950.1 -0.6 69
2019-06-23 02:00:00 19.4 16 Este 26 Este 0 950.6 0.2 68
2019-06-23 01:00:00 19.9 13 Este 22 Este 0 950.8 1.1 65
2019-06-23 00:00:00 20.7 15 Este 22 Este 0 950.7 1.2 58
2019-06-22 23:00:00 22.7 14 Sudeste 22 Este 0 950.4 1 49
2019-06-22 22:00:00 24.6 10 Sudeste 19 Sur 0 949.7 0.4 37
2019-06-22 21:00:00 27 12 Sudeste 20 Sudeste 0 949.5 -0.3 31
2019-06-22 20:00:00 29.2 6 Sur 12 Sudeste 0 949.4 -1.1 22
2019-06-22 19:00:00 29.9 4 Noroeste 13 Noroeste 0 949.3 -1.5 23
2019-06-22 18:00:00 29.8 5 Sudoeste 17 Oeste 0 949.8 -1.7 24
2019-06-22 17:00:00 29.6 8 Sur 19 Sur 0 950.5 -1.8 25
2019-06-22 16:00:00 29.1 6 Sudoeste 22 Oeste 0 950.8 -2.1 28
2019-06-22 15:00:00 27.9 8 Sur 19 Sudoeste 0 951.5 -1.7 31
2019-06-22 14:00:00 25.8 5 Sudoeste 18 Sur 0 952.3 -0.9 36
2019-06-22 13:00:00 23.8 5 Sudoeste 14 Oeste 0 952.9 -0.7 42
2019-06-22 12:00:00 22.8 8 Sudoeste 16 Oeste 0 953.2 -0.1 47
2019-06-22 11:00:00 20.8 4 Sudoeste 10 Oeste 0 953.2 0.3 55
2019-06-22 10:00:00 17.8 5 Sudoeste 11 Sudoeste 0 953.6 0.9 63
2019-06-22 09:00:00 15.6 2 Sudeste 12 Oeste 0 953.3 0.7 72
2019-06-22 08:00:00 14.3 2 Noroeste 11 Oeste 0 952.9 0.4 77
2019-06-22 07:00:00 11.5 8 Oeste 13 Noroeste 0 952.7 0 86
2019-06-22 06:00:00 11.3 8 Noroeste 13 Noroeste 0 952.6 -0.5 87
2019-06-22 05:00:00 11.3 8 Noroeste 15 Oeste 0 952.5 -0.7 88
2019-06-22 04:00:00 11.7 7 Oeste 14 Noroeste 0 952.7 -0.3 87
2019-06-22 03:00:00 12.4 7 Oeste 16 Noroeste 0 953.1 0.4 83
2019-06-22 02:00:00 13.2 7 Oeste 15 Oeste 0 953.2 0.7 79
2019-06-22 01:00:00 14.7 6 Oeste 14 Oeste 0 953 1.2 75
2019-06-22 00:00:00 16.2 8 Oeste 18 Oeste 0 952.7 1.5 69
2019-06-21 23:00:00 17.9 8 Oeste 19 Noroeste 0 952.5 1.7 61
2019-06-21 22:00:00 20.1 6 Oeste 17 Oeste 0 951.8 1 54
2019-06-21 21:00:00 22.7 8 Oeste 20 Oeste 0 951.2 0.5 47
2019-06-21 20:00:00 24.8 9 Noroeste 27 Norte 0 950.8 0.1 43
2019-06-21 19:00:00 26.3 9 Oeste 21 Oeste 0 950.8 -0.5 40
2019-06-21 18:00:00 26.2 6 Oeste 23 Sudoeste 0 950.7 -1.1 43
2019-06-21 17:00:00 25.5 8 Sudoeste 23 Oeste 0 950.7 -1.4 45
2019-06-21 16:00:00 24.9 9 Sudoeste 21 Sudoeste 0 951.3 -1 47
2019-06-21 15:00:00 23.6 10 Sudoeste 19 Oeste 0 951.8 -0.6 53
2019-06-21 14:00:00 22.4 7 Oeste 19 Sudoeste 0 952.1 0 58
2019-06-21 13:00:00 21.4 7 Sudoeste 15 Oeste 0 952.3 0.5 65
2019-06-21 12:00:00 19.5 4 Sudoeste 12 Sudoeste 0 952.4 0.8 77
2019-06-21 11:00:00 18.7 4 Sudoeste 14 Sudeste 0 952.1 0.9 83
2019-06-21 10:00:00 19.6 8 Este 16 Este 0 951.8 1 77
2019-06-21 09:00:00 16.9 8 Este 13 Nordeste 0.4 951.6 1 92
2019-06-21 08:00:00 16.6 7 Este 12 Nordeste 0 951.2 0.7 94
2019-06-21 07:00:00 15.6 3 Nordeste 7 Oeste 0.4 950.8 0.2 94
2019-06-21 06:00:00 15.6 4 Oeste 9 Oeste 0 950.6 0.2 89
2019-06-21 05:00:00 16.1 6 Oeste 15 Nordeste 0 950.5 -0.4 88
2019-06-21 04:00:00 17 6 Sudoeste 14 Oeste 0 950.6 -0.3 80
2019-06-21 03:00:00 17.9 3 Nordeste 6 Este 0 950.4 -0.1 77
2019-06-21 02:00:00 18.1 0 Calma 9 Nordeste 0 950.9 1 78
2019-06-21 01:00:00 18.1 3 Oeste 13 Este 0 950.9 1.4 80
2019-06-21 00:00:00 18.7 10 Este 25 Este 0 950.5 1.2 78
2019-06-20 23:00:00 19.4 14 Este 22 Este 0 949.9 1.2 74
2019-06-20 22:00:00 20.2 10 Este 16 Este 0 949.5 1.7 70
2019-06-20 21:00:00 21.1 6 Este 29 Sur 0 949.3 1.3 65
2019-06-20 20:00:00 22.2 19 Sudeste 39 Sudeste 0 948.7 0.5 62
2019-06-20 19:00:00 25.3 12 Sudeste 33 Sudeste 0 947.8 -0.8 44
2019-06-20 18:00:00 25.2 22 Sudeste 41 Sudeste 0 948 -1.2 43
2019-06-20 17:00:00 28.9 6 Este 21 Sudeste 0 948.2 -1.5 33
2019-06-20 16:00:00 29 11 Sudeste 23 Sudeste 0 948.6 -1.2 33
2019-06-20 15:00:00 28.2 12 Sudeste 25 Sudeste 0 949.2 -0.8 37
2019-06-20 14:00:00 27.4 8 Sudeste 29 Sudeste 0 949.7 -0.5 39
2019-06-20 13:00:00 27.7 14 Sudeste 27 Sudeste 0 949.8 -0.6 37
2019-06-20 12:00:00 26.8 13 Sudeste 25 Sudeste 0 950 -0.3 39
2019-06-20 11:00:00 24.6 9 Sudeste 18 Sudeste 0 950.2 0.3 47
2019-06-20 10:00:00 20.8 5 Sudoeste 10 Sudoeste 0 950.4 0.8 62
2019-06-20 09:00:00 17.6 4 Oeste 10 Sudoeste 0 950.3 1.3 74
2019-06-20 08:00:00 16.5 5 Oeste 10 Noroeste 0 949.9 1.1 78
2019-06-20 07:00:00 16 5 Norte 16 Noroeste 0 949.6 1 80
2019-06-20 06:00:00 17.2 8 Noroeste 14 Oeste 0 949 0.1 72
2019-06-20 05:00:00 19.2 6 Noroeste 11 Oeste 0 948.8 -0.1 52
2019-06-20 04:00:00 20.4 8 Este 14 Nordeste 0 948.6 -0.3 49
2019-06-20 03:00:00 20.6 10 Nordeste 27 Este 0 948.9 0 45
2019-06-20 02:00:00 21.2 4 Noroeste 10 Norte 0 948.9 0.1 43
2019-06-20 01:00:00 22.3 5 Noroeste 14 Norte 0 948.9 0.7 39
2019-06-20 00:00:00 21.7 4 Noroeste 9 Nordeste 0 948.9 1 40
2019-06-19 23:00:00 23.1 3 Norte 8 Nordeste 0 948.8 1 37
2019-06-19 22:00:00 24 7 Nordeste 9 Nordeste 0 948.2 0.5 36
2019-06-19 21:00:00 26.2 0 Calma 16 Norte 0 947.9 -0.2 33
2019-06-19 20:00:00 28.4 6 Noroeste 23 Noroeste 0 947.8 -0.9 29
2019-06-19 19:00:00 29.2 8 Noroeste 25 Noroeste 0 947.7 -1.5 28
2019-06-19 18:00:00 29.4 11 Noroeste 24 Norte 0 948.1 -1.4 27
2019-06-19 17:00:00 29.7 7 Noroeste 25 Oeste 0 948.7 -1.3 27
2019-06-19 16:00:00 29.3 5 Oeste 22 Sur 0 949.2 -0.9 28
2019-06-19 15:00:00 28.9 8 Sudoeste 27 Sudoeste 0 949.5 -0.4 28
2019-06-19 14:00:00 27.9 9 Sudoeste 23 Sudoeste 0 950 0.1 30
2019-06-19 13:00:00 27.2 9 Sudoeste 21 Sur 0 950.1 -0.1 30
2019-06-19 12:00:00 27.1 7 Sur 17 Sudeste 0 949.9 -0.2 27
2019-06-19 11:00:00 24.5 5 Sudeste 13 Este 0 949.9 0.1 31
2019-06-19 10:00:00 23.1 6 Sudeste 14 Sudeste 0 950.2 0.9 33
2019-06-19 09:00:00 20.9 8 Sudeste 15 Sudeste 0 950.1 0.8 40
2019-06-19 08:00:00 18.9 8 Sudeste 13 Sudeste 0 949.8 0.7 44
2019-06-19 07:00:00 15.6 6 Este 10 Este 0 949.3 0.4 48
2019-06-19 06:00:00 15.2 7 Este 13 Este 0 949.3 0.4 46
2019-06-19 05:00:00 15.1 3 Sudeste 13 Este 0 949.1 0.2 45
2019-06-19 04:00:00 16.2 10 Este 15 Este 0 948.9 -0.1 42
2019-06-19 03:00:00 17.1 10 Este 15 Este 0 948.9 0 41
2019-06-19 02:00:00 18.6 12 Este 21 Este 0 948.9 0.4 37
2019-06-19 01:00:00 19.7 15 Este 28 Este 0 949 1 34
2019-06-19 00:00:00 20.5 15 Este 32 Este 0 948.9 1.2 34
2019-06-18 23:00:00 21.5 19 Este 35 Este 0 948.5 1.4 32
2019-06-18 22:00:00 22.5 16 Este 35 Este 0 948 1 36
2019-06-18 21:00:00 25.3 22 Este 34 Sudeste 0 947.7 0.8 33
2019-06-18 20:00:00 27.4 23 Sudeste 37 Sudeste 0 947.1 -0.5 32
2019-06-18 19:00:00 30.9 21 Sudeste 35 Sudeste 0 947 -1 26
2019-06-18 18:00:00 32.9 19 Sudeste 34 Sudeste 0 946.9 -1.9 20
2019-06-18 17:00:00 32.9 13 Sudeste 29 Sudeste 0 947.6 -1.9 19
2019-06-18 16:00:00 33 13 Sudeste 28 Sudeste 0 948 -1.9 19
2019-06-18 15:00:00 31.3 15 Sudeste 28 Sudeste 0 948.8 -1.6 22
2019-06-18 14:00:00 30.5 14 Sudeste 31 Sudeste 0 949.5 -0.8 22
2019-06-18 13:00:00 29.2 17 Este 31 Sudeste 0 949.9 0.1 23
2019-06-18 12:00:00 27.5 19 Sudeste 32 Sudeste 0 950.4 -0.1 28
2019-06-18 11:00:00 26.4 21 Sudeste 37 Sudeste 0 950.3 -0.3 29
2019-06-18 10:00:00 24 22 Este 36 Este 0 949.8 -0.5 32
2019-06-18 09:00:00 22.1 17 Este 28 Sudeste 0 950.5 0.2 38
2019-06-18 08:00:00 19.7 11 Este 19 Este 0 950.6 0.7 50
2019-06-18 07:00:00 18.5 14 Este 23 Sudeste 0 950.3 -0.2 53
2019-06-18 06:00:00 18.9 14 Sudeste 27 Este 0 950.3 -0.3 51
2019-06-18 05:00:00 19.2 17 Este 23 Sudeste 0 949.9 -1.3 54
2019-06-18 04:00:00 19.7 13 Sudeste 30 Este 0 950.5 -0.8 51
2019-06-18 03:00:00 20.6 19 Este 29 Este 0 950.6 -0.4 45
2019-06-18 02:00:00 20.4 18 Este 31 Este 0 951.2 0.9 48
2019-06-18 01:00:00 20.3 18 Este 31 Este 0 951.3 1.8 52
2019-06-18 00:00:00 20.8 17 Este 30 Este 0 951 1.8 56
2019-06-17 23:00:00 22.2 16 Este 25 Sudeste 0 950.3 1.1 51
2019-06-17 22:00:00 25.3 16 Sudeste 28 Sudeste 0 949.5 0.1 41
2019-06-17 21:00:00 28.1 9 Sudeste 14 Este 0 949.2 -0.5 23
2019-06-17 20:00:00 31.1 6 Sudeste 13 Sur 0 949.2 -1.1 18
2019-06-17 19:00:00 32 6 Sudoeste 18 Sur 0 949.4 -1.5 18
2019-06-17 18:00:00 32.1 7 Sudoeste 18 Sudoeste 0 949.7 -1.7 18
2019-06-17 17:00:00 32.1 8 Sur 20 Sur 0 950.3 -1.9 18
2019-06-17 16:00:00 32.1 7 Sudoeste 23 Sudoeste 0 950.9 -1.9 19
2019-06-17 15:00:00 30.9 8 Sur 22 Sudeste 0 951.4 -1.7 23
2019-06-17 14:00:00 29.7 9 Sur 24 Nordeste 0 952.2 -0.9 26
2019-06-17 13:00:00 29.2 8 Sur 20 Sudeste 0 952.8 -0.4 23
2019-06-17 12:00:00 27.9 10 Sudeste 21 Sur 0 953.1 -0.4 28
2019-06-17 11:00:00 26.1 10 Sudeste 18 Sudeste 0 953.1 -0.2 32
2019-06-17 10:00:00 24.5 10 Sudeste 17 Este 0 953.2 0.5 35
2019-06-17 09:00:00 21.4 5 Sudeste 10 Este 0 953.5 0.9 45
2019-06-17 08:00:00 18.2 5 Este 11 Este 0 953.3 1 56
2019-06-17 07:00:00 15.3 8 Este 12 Este 0 952.7 0.1 64
2019-06-17 06:00:00 14.5 6 Este 19 Sudeste 0 952.6 -0.3 67
2019-06-17 05:00:00 15.1 15 Este 20 Sudeste 0 952.3 -0.8 65
2019-06-17 04:00:00 15.6 14 Sudeste 19 Sudeste 0 952.6 -0.7 65
2019-06-17 03:00:00 16.8 10 Este 17 Este 0 952.9 -0.5 56
2019-06-17 02:00:00 18.2 12 Este 18 Este 0 953.1 0.1 59
2019-06-17 01:00:00 18.5 11 Este 21 Este 0 953.3 1 58
2019-06-17 00:00:00 19.6 10 Este 17 Este 0 953.4 1.4 49
2019-06-16 23:00:00 21.2 9 Este 20 Sudeste 0 953 0.9 42
2019-06-16 22:00:00 23.3 9 Sudeste 17 Sudeste 0 952.3 0.1 31
2019-06-16 21:00:00 26.2 5 Sur 10 Sur 0 952 -0.6 24
2019-06-16 20:00:00 28.2 3 Noroeste 10 Sur 0 952.1 -1 18
2019-06-16 19:00:00 28.1 6 Sur 19 Sudeste 0 952.2 -1.7 19
2019-06-16 18:00:00 28.7 10 Sudeste 20 Oeste 0 952.6 -1.9 19
2019-06-16 17:00:00 28.2 7 Sudoeste 20 Sudoeste 0 953.1 -2 22
2019-06-16 16:00:00 28 8 Sur 21 Sur 0 953.9 -1.8 23
2019-06-16 15:00:00 27.2 9 Sudoeste 18 Sur 0 954.5 -1.8 26
2019-06-16 14:00:00 26.3 8 Sudoeste 21 Oeste 0 955.1 -1.5 32
2019-06-16 13:00:00 25.1 5 Sur 14 Sudeste 0 955.7 -0.9 36
2019-06-16 12:00:00 23.4 9 Este 16 Sudeste 0 956.3 -0.2 41
2019-06-16 11:00:00 21.3 8 Sudeste 20 Sudeste 0 956.6 0.5 47
2019-06-16 10:00:00 18.8 12 Este 21 Este 0 956.6 1.1 60
2019-06-16 09:00:00 16.4 15 Sudeste 25 Sudeste 0 956.5 1.2 77
2019-06-16 08:00:00 14.1 13 Este 22 Este 0 956.1 1 77
2019-06-16 07:00:00 11.4 12 Este 18 Este 0 955.5 -0.2 77
2019-06-16 06:00:00 10.5 12 Este 17 Este 0 955.3 -0.5 67
2019-06-16 05:00:00 11.8 4 Norte 11 Noroeste 0 955.1 -0.5 66
2019-06-16 04:00:00 11.2 3 Noroeste 9 Sudoeste 0 955.7 0.5 70
2019-06-16 03:00:00 12.6 3 Sudoeste 13 Oeste 0 955.8 0.8 63
2019-06-16 02:00:00 13.8 5 Sudoeste 11 Oeste 0 955.6 0.8 58
2019-06-16 01:00:00 15.4 5 Oeste 8 Oeste 0 955.2 1.3 45
2019-06-16 00:00:00 16.3 3 Noroeste 13 Noroeste 0 955 1.4 42
2019-06-15 23:00:00 17.3 5 Noroeste 16 Noroeste 0 954.8 1.8 41
2019-06-15 22:00:00 19.1 4 Noroeste 17 Oeste 0 953.9 1.2 42
2019-06-15 21:00:00 21.7 8 Oeste 22 Oeste 0 953.6 1.1 30
2019-06-15 20:00:00 24.1 9 Oeste 25 Sudoeste 0 953 0.4 26
2019-06-15 19:00:00 25.6 7 Oeste 28 Oeste 0 952.7 0.1 26
2019-06-15 18:00:00 25.8 10 Oeste 32 Oeste 0 952.5 0 23
2019-06-15 17:00:00 25.8 10 Oeste 35 Oeste 0 952.6 -0.2 24
2019-06-15 16:00:00 25.9 12 Oeste 34 Oeste 0 952.6 -0.4 26
2019-06-15 15:00:00 25.5 10 Oeste 37 Oeste 0 952.5 -0.6 28
2019-06-15 14:00:00 24.1 11 Oeste 28 Noroeste 0 952.8 -0.3 35
2019-06-15 13:00:00 22.9 13 Oeste 36 Sudoeste 0 953 0 41
2019-06-15 12:00:00 21 11 Oeste 26 Oeste 0 953.1 0.7 48
2019-06-15 11:00:00 19.4 11 Oeste 25 Sudoeste 0 953.1 1.3 54
2019-06-15 10:00:00 17.1 9 Oeste 27 Noroeste 0 953 1.5 64
2019-06-15 09:00:00 14.7 8 Oeste 19 Oeste 0 952.4 1.1 75
2019-06-15 08:00:00 12.3 8 Oeste 15 Oeste 0 951.8 1.3 85
2019-06-15 07:00:00 10.6 7 Oeste 19 Oeste 0 951.5 1.4 91
2019-06-15 06:00:00 11 8 Oeste 18 Oeste 0 951.3 1.4 91
2019-06-15 05:00:00 11.5 6 Sudoeste 13 Sudoeste 0 950.5 0.9 88
2019-06-15 04:00:00 12.4 5 Oeste 15 Oeste 0 950.1 1.2 85
2019-06-15 03:00:00 13.6 5 Noroeste 14 Oeste 0 949.9 1.4 79
2019-06-15 02:00:00 16.4 5 Oeste 11 Oeste 0 949.6 1.8 66
2019-06-15 01:00:00 18.6 4 Este 13 Este 0 948.9 2 58
2019-06-15 00:00:00 19.6 4 Este 18 Sudeste 0 948.5 2.2 53
2019-06-14 23:00:00 20.7 9 Sudeste 17 Sudeste 0 947.8 2 47
2019-06-14 22:00:00 22 9 Sudeste 14 Sur 0 946.9 1.3 38
2019-06-14 21:00:00 24.8 4 Sudeste 9 Nordeste 0 946.3 0.3 30
2019-06-14 20:00:00 26.7 6 Sudeste 11 Sur 0 945.8 -0.7 26
2019-06-14 19:00:00 26.9 5 Sudoeste 13 Noroeste 0 945.6 -1 26
2019-06-14 18:00:00 26 4 Noroeste 14 Oeste 0 946 -0.7 34
2019-06-14 17:00:00 25.3 5 Sudoeste 17 Sudoeste 0 946.5 -0.8 40
2019-06-14 16:00:00 24.2 6 Sudoeste 14 Sudoeste 0 946.6 -1.1 46
2019-06-14 15:00:00 20.9 5 Norte 17 Nordeste 0.2 946.7 -0.8 61
2019-06-14 14:00:00 17.4 8 Noroeste 22 Norte 0 947.3 0.5 64
2019-06-14 13:00:00 18.1 9 Oeste 26 Sudoeste 0 947.7 0.3 58
2019-06-14 12:00:00 18.7 12 Oeste 23 Oeste 0 947.5 0.1 60
2019-06-14 11:00:00 18 8 Sudoeste 16 Norte 0 946.8 0.6 63
2019-06-14 10:00:00 14.4 4 Norte 10 Norte 0.4 947.4 1.2 70
2019-06-14 09:00:00 15.4 5 Oeste 12 Oeste 0 947.4 1.3 52
2019-06-14 08:00:00 15.2 5 Noroeste 12 Oeste 0 946.2 0.7 51
2019-06-14 07:00:00 14.2 6 Noroeste 12 Noroeste 0 946.2 -0.2 56
2019-06-14 06:00:00 13.2 8 Noroeste 13 Este 0 946.1 -1.7 57
2019-06-14 05:00:00 15.1 11 Este 17 Este 0 945.5 -2.5 52
2019-06-14 04:00:00 14.9 13 Este 20 Este 0 946.4 -1.9 51
2019-06-14 03:00:00 15.4 10 Sudeste 17 Sudeste 0 947.8 -0.5 55
2019-06-14 02:00:00 16.9 12 Este 22 Este 0 948 -0.1 47
2019-06-14 01:00:00 17 14 Este 24 Sudeste 0 948.3 0.9 51
2019-06-14 00:00:00 17.1 14 Este 26 Este 0 948.3 1.3 54
2019-06-13 23:00:00 17.4 14 Este 25 Este 0 948.1 1.5 53
2019-06-13 22:00:00 17.5 14 Este 24 Este 0 947.4 1.5 52
2019-06-13 21:00:00 19.4 16 Este 32 Sudeste 0 947 0.8 45
2019-06-13 20:00:00 20.3 19 Sudeste 38 Sudeste 0 946.6 -0.1 46
2019-06-13 19:00:00 24.6 22 Sudeste 39 Sudeste 0 945.9 -1.3 42
2019-06-13 18:00:00 26.1 20 Sudeste 38 Sudeste 0 946.2 -1.5 32
2019-06-13 17:00:00 25.2 21 Sudeste 37 Sudeste 0 946.7 -1.8 35
2019-06-13 16:00:00 24.8 20 Este 41 Sudeste 0 947.2 -1.8 37
2019-06-13 15:00:00 25 19 Sudeste 39 Sudeste 0 947.7 -1.9 38
2019-06-13 14:00:00 23.9 22 Sudeste 39 Este 0 948.5 -1.2 40
2019-06-13 13:00:00 22.1 24 Sudeste 42 Sudeste 0 949 -0.8 44
2019-06-13 12:00:00 20.9 25 Sudeste 41 Sudeste 0 949.6 0.1 46
2019-06-13 11:00:00 19.1 22 Este 35 Sudeste 0 949.7 0.4 50
2019-06-13 10:00:00 17.9 22 Sudeste 36 Este 0 949.8 0.9 50
2019-06-13 09:00:00 15.8 19 Este 32 Este 0 949.5 1.1 50
2019-06-13 08:00:00 13.1 14 Este 26 Este 0 949.3 0.8 55
2019-06-13 07:00:00 11.8 15 Este 29 Este 0 948.9 0.2 58
2019-06-13 06:00:00 11.5 16 Este 27 Este 0 948.4 -0.7 58
2019-06-13 05:00:00 11.8 14 Este 27 Este 0 948.5 -0.8 57
2019-06-13 04:00:00 11.9 17 Este 31 Este 0 948.7 -1 54
2019-06-13 03:00:00 12.1 17 Este 27 Este 0 949.1 -0.3 54
2019-06-13 02:00:00 12.3 17 Este 28 Este 0 949.3 0.3 57
2019-06-13 01:00:00 13 16 Este 24 Este 0 949.7 1.4 57
2019-06-13 00:00:00 13.6 15 Sudeste 22 Este 0 949.4 1.4 53
2019-06-12 23:00:00 15 12 Sudeste 22 Sudeste 0 949 1.2 45
2019-06-12 22:00:00 16.8 13 Sudeste 26 Sur 0 948.3 0.4 40
2019-06-12 21:00:00 19.2 15 Sudeste 26 Sur 0 948 -0.4 31
2019-06-12 20:00:00 21.6 6 Sudeste 13 Noroeste 0 947.8 -1.2 25
2019-06-12 19:00:00 21.7 5 Noroeste 14 Noroeste 0 947.9 -1.5 24
2019-06-12 18:00:00 21.6 7 Oeste 18 Oeste 0 948.4 -1.5 25
2019-06-12 17:00:00 21.9 8 Oeste 22 Oeste 0 949 -1.3 25
2019-06-12 16:00:00 21.3 9 Sudoeste 24 Sudoeste 0 949.4 -1.2 26
2019-06-12 15:00:00 20.4 11 Sudoeste 24 Oeste 0 949.9 -0.9 27
2019-06-12 14:00:00 19.8 9 Noroeste 27 Oeste 0 950.3 -0.6 31
2019-06-12 13:00:00 18.3 12 Sudoeste 27 Oeste 0 950.6 -0.3 34
2019-06-12 12:00:00 17.7 9 Oeste 19 Oeste 0 950.8 0.2 34
2019-06-12 11:00:00 16 7 Noroeste 18 Norte 0 950.9 0.8 39
2019-06-12 10:00:00 13.8 6 Sudoeste 13 Sudoeste 0 950.9 1 50
2019-06-12 09:00:00 11.3 5 Oeste 9 Noroeste 0 950.6 1.2 57
2019-06-12 08:00:00 8 4 Noroeste 10 Oeste 0 950.1 0.6 69
2019-06-12 07:00:00 6.9 4 Noroeste 13 Norte 0 949.9 0.4 73
2019-06-12 06:00:00 6.5 6 Noroeste 13 Noroeste 0 949.4 -0.1 77
2019-06-12 05:00:00 6.3 5 Noroeste 11 Noroeste 0 949.5 0 76
2019-06-12 04:00:00 7 5 Oeste 11 Noroeste 0 949.5 -0.4 72
2019-06-12 03:00:00 8.3 5 Noroeste 17 Norte 0 949.5 -0.3 62
2019-06-12 02:00:00 8.7 8 Noroeste 22 Norte 0 949.5 -0.4 64
2019-06-12 01:00:00 8.9 5 Noroeste 15 Oeste 0 949.9 0.7 62
2019-06-12 00:00:00 9.7 4 Noroeste 15 Norte 0 949.8 1.3 59
2019-06-11 23:00:00 10.6 5 Noroeste 24 Norte 0 949.9 1.8 58
2019-06-11 22:00:00 12 10 Noroeste 32 Norte 0 949.2 2 53
2019-06-11 21:00:00 13.6 11 Noroeste 34 Norte 0 948.5 1.3 46
2019-06-11 20:00:00 15.5 16 Noroeste 41 Norte 0 948.1 0.9 41
2019-06-11 19:00:00 17.8 13 Noroeste 37 Noroeste 0 947.2 -0.1 34
2019-06-11 18:00:00 19 12 Noroeste 39 Oeste 0 947.2 -0.2 31
2019-06-11 17:00:00 19.5 13 Oeste 33 Oeste 0 947.2 -0.5 31
2019-06-11 16:00:00 18.6 12 Noroeste 39 Noroeste 0 947.3 -0.8 35
2019-06-11 15:00:00 18.3 11 Oeste 31 Oeste 0 947.4 -1 35
2019-06-11 14:00:00 17.7 10 Oeste 30 Noroeste 0 947.7 -0.9 43
2019-06-11 13:00:00 14.8 9 Noroeste 27 Noroeste 0 948.1 -0.1 57
2019-06-11 12:00:00 12.7 9 Noroeste 24 Noroeste 0 948.4 0.4 68
2019-06-11 11:00:00 11.5 6 Oeste 22 Oeste 0 948.6 0.8 76
2019-06-11 10:00:00 10.3 4 Oeste 11 Oeste 0 948.2 0.6 85
2019-06-11 09:00:00 9.5 4 Oeste 11 Oeste 0 948 0.7 87
2019-06-11 08:00:00 9.6 5 Oeste 12 Sudoeste 0.2 947.8 0 85
2019-06-11 07:00:00 9.7 6 Oeste 12 Oeste 0 947.6 -1.2 88
2019-06-11 06:00:00 9.7 5 Noroeste 14 Noroeste 0 947.3 -1.9 84
2019-06-11 05:00:00 9.6 5 Noroeste 13 Noroeste 0 947.8 -0.8 84
2019-06-11 04:00:00 9.7 5 Noroeste 16 Norte 0.8 948.8 -0.8 86
2019-06-11 03:00:00 11.2 4 Oeste 17 Sudoeste 0 949.2 0.1 70
2019-06-11 02:00:00 12.6 8 Nordeste 14 Nordeste 0 948.6 0 66
2019-06-11 01:00:00 13.5 6 Oeste 17 Oeste 0 949.6 1.7 52
2019-06-11 00:00:00 13.5 7 Oeste 18 Sudoeste 0 949.1 1.2 54
2019-06-10 23:00:00 14 6 Oeste 21 Oeste 0 948.6 0.9 50
2019-06-10 22:00:00 14.6 8 Oeste 30 Oeste 0 947.9 0.5 46
2019-06-10 21:00:00 16.8 10 Oeste 26 Noroeste 0 947.9 0 41
2019-06-10 20:00:00 19.3 10 Oeste 28 Sudoeste 0 947.7 -0.5 31
2019-06-10 19:00:00 22.4 12 Noroeste 31 Noroeste 0 947.4 -1.2 28
2019-06-10 18:00:00 22.2 14 Oeste 38 Oeste 0 947.9 -0.9 18
2019-06-10 17:00:00 23.7 14 Oeste 44 Norte 0 948.2 -1.2 18
2019-06-10 16:00:00 24.2 15 Oeste 36 Oeste 0 948.6 -1.3 29
2019-06-10 15:00:00 23.9 13 Oeste 36 Sudoeste 0 948.8 -1.3 35
2019-06-10 14:00:00 22.8 12 Oeste 34 Sudoeste 0 949.4 -0.8 39
2019-06-10 13:00:00 21.9 12 Oeste 28 Oeste 0 949.9 -0.3 42
2019-06-10 12:00:00 20.9 10 Oeste 24 Sudoeste 0 950.1 -0.1 45
2019-06-10 11:00:00 19.3 7 Oeste 26 Oeste 0 950.2 0 50
2019-06-10 10:00:00 17.4 9 Oeste 22 Oeste 0 950.2 0.3 57
2019-06-10 09:00:00 14.6 6 Oeste 21 Oeste 0 950.2 0.6 69
2019-06-10 08:00:00 12.3 7 Oeste 22 Oeste 0 950.2 0.4 79
2019-06-10 07:00:00 11.1 6 Oeste 17 Oeste 0 949.9 -0.1 84
2019-06-10 06:00:00 11.7 6 Oeste 19 Oeste 0 949.6 -0.2 83
2019-06-10 05:00:00 12.7 8 Oeste 18 Oeste 0 949.8 -0.5 78
2019-06-10 04:00:00 13.5 6 Oeste 20 Oeste 0 950 -0.1 77
2019-06-10 03:00:00 14.2 8 Noroeste 20 Sudoeste 0.2 949.8 0.1 78
2019-06-10 02:00:00 15.7 8 Oeste 21 Oeste 0 950.3 0.9 68
2019-06-10 01:00:00 16.6 6 Oeste 18 Oeste 0 950.1 1.7 62
2019-06-10 00:00:00 18 7 Oeste 18 Oeste 0 949.7 1.8 58
2019-06-09 23:00:00 20.5 8 Oeste 20 Sudoeste 0 949.4 1.6 51
2019-06-09 22:00:00 23.5 4 Sudoeste 14 Oeste 0 948.4 0.5 30
2019-06-09 21:00:00 25.3 0 Calma 10 Oeste 0 947.9 -0.4 25
2019-06-09 20:00:00 27.7 5 Oeste 15 Noroeste 0 947.8 -0.8 21
2019-06-09 19:00:00 27.6 6 Noroeste 19 Norte 0 947.9 -1.6 21
2019-06-09 18:00:00 27.9 6 Norte 16 Noroeste 0 948.3 -1.9 22
2019-06-09 17:00:00 28.1 5 Noroeste 22 Oeste 0 948.6 -2.3 18
2019-06-09 16:00:00 28.1 11 Sudoeste 22 Oeste 0 949.5 -2 26
2019-06-09 15:00:00 27.4 7 Sudeste 23 Sudeste 0 950.2 -1.7 25
2019-06-09 14:00:00 26.7 10 Sudeste 22 Sur 0 950.9 -1 27
2019-06-09 13:00:00 25.7 10 Sudeste 25 Sur 0 951.5 -0.7 27
2019-06-09 12:00:00 24.5 9 Sudeste 28 Sudeste 0 951.9 -0.6 29
2019-06-09 11:00:00 24 14 Sudeste 26 Sudeste 0 951.9 -0.7 30
2019-06-09 10:00:00 22.3 14 Sudeste 23 Sudeste 0 952.2 -0.2 36
2019-06-09 09:00:00 17.2 3 Nordeste 8 Este 0 952.5 0 54
2019-06-09 08:00:00 15.9 4 Noroeste 8 Este 0 952.6 -0.7 56
2019-06-09 07:00:00 15.4 7 Sudeste 16 Este 0 952.4 -1.2 57
2019-06-09 06:00:00 15.9 11 Este 16 Este 0 952.5 -2.2 54
2019-06-09 05:00:00 15.3 9 Este 21 Este 0 953.3 -1.4 58
2019-06-09 04:00:00 15.1 13 Este 22 Este 0 953.6 -1.8 58
2019-06-09 03:00:00 15.3 12 Sudeste 23 Este 0 954.7 -1 56
2019-06-09 02:00:00 15.6 13 Este 24 Este 0 954.7 -1.3 52
2019-06-09 01:00:00 15.8 12 Este 36 Este 0 955.4 0 50
2019-06-09 00:00:00 16.5 17 Este 30 Sudeste 0 955.7 0.7 47
2019-06-08 23:00:00 16.9 15 Este 25 Este 0 956 1.3 46
2019-06-08 22:00:00 18.1 16 Sudeste 31 Sudeste 0 955.4 1.1 40
2019-06-08 21:00:00 19.6 15 Sudeste 31 Sudeste 0 955 0.5 37
2019-06-08 20:00:00 21.4 19 Sudeste 39 Sudeste 0 954.7 -0.6 35
2019-06-08 19:00:00 23.5 20 Sudeste 32 Sudeste 0 954.3 -1.7 36
2019-06-08 18:00:00 23.9 18 Sudeste 32 Sudeste 0 954.5 -2 33
2019-06-08 17:00:00 25.1 15 Sudeste 31 Sudeste 0 955.3 -1.9 26
2019-06-08 16:00:00 24.6 17 Sudeste 36 Sudeste 0 956 -1.9 30
2019-06-08 15:00:00 23.9 11 Sudeste 28 Sudeste 0 956.5 -1.9 31
2019-06-08 14:00:00 23.8 14 Sudeste 28 Sudeste 0 957.2 -1.4 32
2019-06-08 13:00:00 22.5 14 Sudeste 28 Sudeste 0 957.9 -0.8 32
2019-06-08 12:00:00 21.7 12 Sudeste 26 Este 0 958.4 -0.2 33
2019-06-08 11:00:00 20.4 11 Sudeste 22 Sudeste 0 958.6 0.6 38
2019-06-08 10:00:00 18.2 13 Este 21 Sudeste 0 958.7 1.3 36
2019-06-08 09:00:00 15.4 10 Sudeste 17 Este 0 958.6 1.3 46
2019-06-08 08:00:00 12.3 12 Sudeste 21 Sudeste 0 958 0.8 54
2019-06-08 07:00:00 11.1 3 Norte 8 Nordeste 0 957.4 0.3 49
2019-06-08 06:00:00 10.7 4 Norte 10 Norte 0 957.3 0.5 56
2019-06-08 05:00:00 11.5 7 Noroeste 12 Norte 0 957.2 0.5 55
2019-06-08 04:00:00 12.3 6 Noroeste 11 Noroeste 0 957.1 0.7 49
2019-06-08 03:00:00 12.1 6 Noroeste 10 Noroeste 0 956.8 1 49
2019-06-08 02:00:00 12.4 5 Norte 12 Sudeste 0 956.7 1.5 48
2019-06-08 01:00:00 11.9 7 Este 11 Sudeste 0 956.4 2.1 53
2019-06-08 00:00:00 13.1 7 Nordeste 14 Nordeste 0 955.8 1.9 46
2019-06-07 23:00:00 15.2 6 Nordeste 17 Norte 0 955.2 1.9 41
2019-06-07 22:00:00 16.8 10 Norte 20 Noroeste 0 954.3 1.7 35
2019-06-07 21:00:00 18.6 3 Noroeste 16 Noroeste 0 953.9 1.7 33
2019-06-07 20:00:00 20.2 8 Noroeste 26 Noroeste 0 953.3 1.5 28
2019-06-07 19:00:00 21.4 7 Noroeste 24 Noroeste 0 952.6 0.9 25
2019-06-07 18:00:00 21.4 6 Noroeste 26 Oeste 0 952.2 1 26
2019-06-07 17:00:00 22 9 Oeste 23 Noroeste 0 951.8 0.8 28
2019-06-07 16:00:00 21.1 8 Sudoeste 30 Sudoeste 0 951.7 1 30
2019-06-07 15:00:00 20.9 8 Oeste 30 Oeste 0 951.2 0.9 32
2019-06-07 14:00:00 19.8 8 Oeste 24 Noroeste 0 951 1.3 35
2019-06-07 13:00:00 18.3 8 Oeste 24 Oeste 0 950.7 1.5 41
2019-06-07 12:00:00 17.1 8 Oeste 27 Oeste 0 950.3 2 48
2019-06-07 11:00:00 15.1 7 Oeste 19 Oeste 0 949.7 2.6 64
2019-06-07 10:00:00 12.6 6 Oeste 17 Noroeste 0 949.2 3.2 80
2019-06-07 09:00:00 11.4 6 Noroeste 29 Oeste 4.2 948.3 3 91
2019-06-07 08:00:00 13.8 12 Sudeste 27 Este 0.2 947.1 1.7 83
2019-06-07 07:00:00 13.5 17 Sudeste 27 Este 0 946 1 79
2019-06-07 06:00:00 14.1 18 Este 33 Este 0 945.3 -0.2 75
2019-06-07 05:00:00 14.7 19 Este 37 Sudeste 0 945.4 -0.2 70
2019-06-07 04:00:00 15.1 23 Este 36 Este 0 945 -1 68
2019-06-07 03:00:00 15 22 Este 41 Este 0 945.5 -0.4 64
2019-06-07 02:00:00 15 25 Este 40 Este 0 945.6 -0.3 63
2019-06-07 01:00:00 14.6 23 Este 37 Sudeste 0 946 1.1 63
2019-06-07 00:00:00 15.2 23 Este 42 Sudeste 0 945.9 0.9 63
2019-06-06 23:00:00 16.2 24 Este 51 Sudeste 0 945.9 0.9 58
2019-06-06 22:00:00 17.3 28 Sudeste 47 Sudeste 0 944.9 -0.3 51
2019-06-06 21:00:00 18.7 30 Sudeste 57 Sudeste 0 945 -0.5 46
2019-06-06 20:00:00 19.2 27 Sudeste 50 Sudeste 0 945 -0.9 48
2019-06-06 19:00:00 20.3 29 Sudeste 49 Sudeste 0 945.2 -1.9 46
2019-06-06 18:00:00 23.3 28 Sudeste 53 Sudeste 0 945.5 -2.4 39
2019-06-06 17:00:00 24.1 31 Sudeste 47 Sudeste 0 945.9 -2.9 32
2019-06-06 16:00:00 24 18 Sudeste 34 Este 0 947.1 -2.3 30
2019-06-06 15:00:00 23.3 12 Sudeste 26 Sur 0 947.9 -1.8 29
2019-06-06 14:00:00 22 12 Sudeste 30 Sudeste 0 948.8 -1.2 31
2019-06-06 13:00:00 20.2 14 Sudeste 26 Sudeste 0 949.4 -0.6 39
2019-06-06 12:00:00 19.3 13 Sudeste 30 Sudeste 0 949.7 -0.3 43
2019-06-06 11:00:00 17.6 12 Sudeste 25 Sudeste 0 950 0.3 48
2019-06-06 10:00:00 15.9 13 Sudeste 21 Sudeste 0 950 0.4 55
2019-06-06 09:00:00 12.6 10 Sudeste 14 Este 0 950 0.8 73
2019-06-06 08:00:00 10.5 6 Este 9 Este 0 949.7 0.2 78
2019-06-06 07:00:00 8.5 4 Nordeste 8 Noroeste 0 949.6 0.3 86
2019-06-06 06:00:00 8.4 5 Noroeste 11 Oeste 0 949.2 0.1 86
2019-06-06 05:00:00 9 5 Oeste 14 Sudoeste 0 949.5 0.4 83
2019-06-06 04:00:00 9.9 5 Oeste 10 Sudoeste 0 949.3 0.6 77
2019-06-06 03:00:00 10.2 4 Oeste 14 Noroeste 0 949.1 0.6 73
2019-06-06 02:00:00 10.2 5 Oeste 14 Oeste 0 949.1 0.9 73
2019-06-06 01:00:00 10.6 6 Sudoeste 10 Sudoeste 0 948.7 1 69
2019-06-06 00:00:00 10.5 5 Noroeste 13 Noroeste 0 948.5 1.1 69
2019-06-05 23:00:00 10.9 5 Noroeste 17 Noroeste 0 948.2 1.6 68
2019-06-05 22:00:00 12.2 5 Noroeste 30 Noroeste 0 947.7 1.8 61
2019-06-05 21:00:00 14.2 10 Noroeste 34 Noroeste 0 947.4 1.5 51
2019-06-05 20:00:00 16.1 14 Noroeste 43 Noroeste 0 946.6 0.9 46
2019-06-05 19:00:00 16.9 17 Noroeste 40 Noroeste 0 945.9 0.9 46
2019-06-05 18:00:00 17.4 16 Noroeste 41 Noroeste 0 945.9 1.1 47
2019-06-05 17:00:00 18.5 14 Noroeste 46 Noroeste 0 945.7 0.4 45
2019-06-05 16:00:00 18.5 17 Noroeste 42 Oeste 0 945 0.6 43
2019-06-05 15:00:00 18.2 11 Oeste 33 Oeste 0 944.8 0.8 53
2019-06-05 14:00:00 17.3 11 Oeste 28 Noroeste 0 945.3 1.8 61
2019-06-05 13:00:00 15.1 8 Oeste 20 Oeste 0 944.4 1 83
2019-06-05 12:00:00 13.4 10 Oeste 21 Oeste 0.4 944 2.3 94
2019-06-05 11:00:00 12.1 7 Oeste 22 Noroeste 0 943.5 1.3 96
2019-06-05 10:00:00 11.5 11 Oeste 28 Sur 3.4 943.4 1.1 91
2019-06-05 09:00:00 15.3 17 Sudeste 30 Este 0 941.7 -0.5 82
2019-06-05 08:00:00 14.9 13 Este 24 Este 0 942.2 0 80
2019-06-05 07:00:00 14.1 9 Este 17 Este 0 942.3 -0.4 76
2019-06-05 06:00:00 13.6 10 Este 19 Este 0 942.2 -0.9 67
2019-06-05 05:00:00 14.3 11 Este 18 Este 0 942.2 -1.7 60
2019-06-05 04:00:00 15.2 11 Sudeste 27 Este 0 942.7 -1.4 56
2019-06-05 03:00:00 15.6 12 Este 18 Este 0 943.1 -1 55
2019-06-05 02:00:00 16.7 11 Este 21 Este 0 943.9 -0.5 49
2019-06-05 01:00:00 18.1 17 Este 36 Sudeste 0 944.1 1.5 47
2019-06-05 00:00:00 19.3 21 Sudeste 31 Sudeste 0 944.1 2 43
2019-06-04 23:00:00 20.4 16 Sudeste 42 Este 0 944.4 1.6 44
2019-06-04 22:00:00 21.4 27 Sudeste 45 Sudeste 0 942.6 -0.1 44
2019-06-04 21:00:00 23.2 27 Sudeste 45 Sudeste 0 942.1 -1.2 42
2019-06-04 20:00:00 26.3 21 Sudeste 37 Sudeste 0 942.8 -1.1 37
2019-06-04 19:00:00 28.5 19 Sudeste 36 Sudeste 0 942.7 -2 32
2019-06-04 18:00:00 30.4 21 Sudeste 35 Sudeste 0 943.3 -2.4 27
2019-06-04 17:00:00 30.5 17 Sudeste 30 Sudeste 0 943.9 -2.7 24
2019-06-04 16:00:00 30.9 16 Sudeste 27 Este 0 944.7 -2.6 23
2019-06-04 15:00:00 30.4 17 Sudeste 31 Sudeste 0 945.7 -2 24
2019-06-04 14:00:00 28.5 16 Este 31 Sudeste 0 946.6 -1.3 25
2019-06-04 13:00:00 27.3 17 Sudeste 31 Sudeste 0 947.3 -0.8 27
2019-06-04 12:00:00 25.8 20 Este 33 Sudeste 0 947.7 -0.4 26
2019-06-04 11:00:00 24.3 20 Este 32 Sudeste 0 947.9 0 28
2019-06-04 10:00:00 22.1 22 Sudeste 33 Sudeste 0 948.1 0.3 33
2019-06-04 09:00:00 19.9 13 Sudeste 25 Sudeste 0 948.1 0.3 39
2019-06-04 08:00:00 17.9 14 Sudeste 23 Sudeste 0 947.9 0.1 46
2019-06-04 07:00:00 15.9 12 Este 18 Este 0 947.8 -0.5 51
2019-06-04 06:00:00 16.3 10 Este 24 Sudeste 0 947.8 -1 48
2019-06-04 05:00:00 16.5 15 Este 27 Este 0 947.8 -1.4 50
2019-06-04 04:00:00 16.9 17 Este 29 Sudeste 0 948.3 -1.5 48
2019-06-04 03:00:00 17.1 14 Este 31 Este 0 948.8 -1.4 48
2019-06-04 02:00:00 17.5 19 Este 31 Este 0 949.2 -0.9 47
2019-06-04 01:00:00 18 16 Este 30 Este 0 949.8 0.1 49
2019-06-04 00:00:00 18.5 19 Este 35 Este 0 950.2 0.6 46
2019-06-03 23:00:00 19.9 18 Este 30 Este 0 950.1 0.6 49
2019-06-03 22:00:00 22 15 Este 25 Este 0 949.7 0 44
2019-06-03 21:00:00 24.6 16 Este 31 Este 0 949.6 -0.4 39
2019-06-03 20:00:00 28 19 Sudeste 32 Sudeste 0 949.5 -1 32
2019-06-03 19:00:00 29.4 18 Sudeste 27 Sudeste 0 949.7 -1.2 28
2019-06-03 18:00:00 30.5 17 Sudeste 31 Sudeste 0 950 -1.5 26
2019-06-03 17:00:00 30.3 15 Sudeste 26 Sudeste 0 950.5 -1.5 25
2019-06-03 16:00:00 31.1 13 Sudeste 26 Sudeste 0 950.9 -1.6 23
2019-06-03 15:00:00 30.4 13 Sudeste 25 Sudeste 0 951.5 -1.3 23
2019-06-03 14:00:00 29 13 Sudeste 24 Sudeste 0 952 -0.8 23
2019-06-03 13:00:00 28.1 18 Sudeste 30 Sudeste 0 952.5 -0.4 25
2019-06-03 12:00:00 26.5 18 Este 30 Sudeste 0 952.8 0.2 28
2019-06-03 11:00:00 24.6 18 Este 31 Este 0 952.8 -0.1 28
2019-06-03 10:00:00 22.4 19 Este 30 Este 0 952.9 0.1 33
2019-06-03 09:00:00 20.6 12 Este 20 Este 0 952.6 0 40
2019-06-03 08:00:00 17.5 6 Nordeste 10 Este 0 952.9 0.8 46
2019-06-03 07:00:00 16.3 7 Este 19 Sudeste 0 952.8 1.4 45
2019-06-03 06:00:00 17.6 8 Sur 27 Sudeste 0 952.6 -0.3 41
2019-06-03 05:00:00 18.8 18 Sudeste 33 Este 0 952.1 -0.8 39
2019-06-03 04:00:00 19.8 22 Este 32 Este 0 951.4 -3 39
2019-06-03 03:00:00 20 19 Este 31 Este 0 952.9 -0.8 39
2019-06-03 02:00:00 20.2 19 Este 34 Este 0 952.9 -0.3 40
2019-06-03 01:00:00 19.8 13 Este 30 Este 0 954.4 2.2 42
2019-06-03 00:00:00 20.6 15 Este 24 Este 0 953.7 2.1 38
2019-06-02 23:00:00 21.2 15 Este 27 Este 0 953.2 2 40
2019-06-02 22:00:00 22.5 17 Este 26 Este 0 952.2 1 41
2019-06-02 21:00:00 26.3 15 Sudeste 32 Sudeste 0 951.6 0 33
2019-06-02 20:00:00 30 12 Sudeste 21 Sudeste 0 951.2 -0.8 26
2019-06-02 19:00:00 31.5 9 Sur 18 Sur 0 951.2 -1.4 21
2019-06-02 18:00:00 32.5 5 Oeste 18 Sur 0 951.6 -1.6 21
2019-06-02 17:00:00 32.4 7 Sudeste 17 Sur 0 952 -1.9 21
2019-06-02 16:00:00 32 8 Sur 26 Sur 0 952.6 -2 21
2019-06-02 15:00:00 30.9 9 Sudeste 21 Sudeste 0 953.2 -1.6 22
2019-06-02 14:00:00 29.9 9 Sudeste 23 Sudeste 0 953.9 -1.1 24
2019-06-02 13:00:00 28.4 6 Sudeste 20 Sudeste 0 954.6 -0.5 27
2019-06-02 12:00:00 27.1 7 Este 17 Sudeste 0 954.8 -0.1 28
2019-06-02 11:00:00 25.1 8 Sudeste 21 Sudeste 0 955 0.3 32
2019-06-02 10:00:00 23.6 12 Sudeste 23 Sudeste 0 955.1 0.5 36
2019-06-02 09:00:00 21.8 11 Sudeste 17 Sudeste 0 954.9 0.3 44
2019-06-02 08:00:00 18.8 9 Este 13 Este 0 954.7 0 50
2019-06-02 07:00:00 15.9 9 Este 15 Este 0 954.6 -0.6 56
2019-06-02 06:00:00 15.6 12 Este 17 Este 0 954.6 -1 58
2019-06-02 05:00:00 16.2 12 Este 19 Este 0 954.7 -1 56
2019-06-02 04:00:00 16.6 13 Este 20 Este 0 955.2 -0.4 56
2019-06-02 03:00:00 16.6 13 Este 22 Este 0 955.6 -0.1 56
2019-06-02 02:00:00 17.3 15 Este 23 Este 0 955.7 0.3 54
2019-06-02 01:00:00 17.4 14 Este 27 Este 0 955.6 1.1 53
2019-06-02 00:00:00 18.9 14 Este 23 Este 0 955.7 1.6 53
2019-06-01 23:00:00 20.1 11 Este 19 Este 0 955.4 1.4 50
2019-06-01 22:00:00 23.4 10 Sudeste 24 Sudeste 0 954.5 0.5 41
2019-06-01 21:00:00 26.5 8 Sudeste 12 Sur 0 954.1 -0.2 27
2019-06-01 20:00:00 29.4 5 Sur 14 Sur 0 954 -0.8 21
2019-06-01 19:00:00 30.2 8 Sur 16 Sudeste 0 954 -1.4 23
2019-06-01 18:00:00 30.1 7 Sudoeste 21 Sur 0 954.3 -1.7 23
2019-06-01 17:00:00 30.1 10 Sudeste 22 Sur 0 954.8 -1.9 24
2019-06-01 16:00:00 29.9 8 Sudeste 22 Sudeste 0 955.4 -1.9 24
2019-06-01 15:00:00 29.6 10 Sudeste 23 Sudeste 0 956 -1.6 25
2019-06-01 14:00:00 28.7 10 Sudeste 22 Sudeste 0 956.7 -1 25
2019-06-01 13:00:00 28.1 10 Sudeste 24 Sudeste 0 957.3 -0.6 25
2019-06-01 12:00:00 26.5 12 Sudeste 25 Sudeste 0 957.6 -0.2 33
2019-06-01 11:00:00 25.1 12 Sudeste 24 Sudeste 0 957.7 0.1 38
2019-06-01 10:00:00 23.3 14 Sudeste 22 Sudeste 0 957.9 0.7 45
2019-06-01 09:00:00 21 9 Sudeste 15 Sudeste 0 957.8 0.7 51
2019-06-01 08:00:00 18.2 0 Calma 13 Este 0 957.6 0.3 58
2019-06-01 07:00:00 15.1 9 Nordeste 14 Nordeste 0 957.2 -0.1 65
2019-06-01 06:00:00 14.8 9 Este 16 Este 0 957.1 -0.5 66
2019-06-01 05:00:00 14.2 12 Este 15 Este 0 957.3 -0.3 70
2019-06-01 04:00:00 14.7 12 Este 18 Este 0 957.3 -0.6 69
2019-06-01 03:00:00 15.4 13 Este 23 Este 0 957.6 -0.4 69
2019-06-01 02:00:00 16.1 14 Este 23 Este 0 957.6 0 66
2019-06-01 01:00:00 16.8 15 Este 26 Este 0 957.9 1 64
2019-06-01 00:00:00 17.9 14 Este 22 Este 0 958 1.4 62
2019-05-31 23:00:00 19.3 12 Este 20 Este 0 957.6 1 57
2019-05-31 22:00:00 22.3 10 Sudeste 18 Sudeste 0 956.9 0.3 48
2019-05-31 21:00:00 25 5 Sur 11 Sur 0 956.6 -0.3 31
2019-05-31 20:00:00 27.3 6 Sudoeste 14 Sur 0 956.6 -0.6 25
2019-05-31 19:00:00 28 5 Sur 19 Sudoeste 0 956.6 -0.9 27
2019-05-31 18:00:00 27.9 9 Sur 23 Sur 0 956.9 -1.2 29
2019-05-31 17:00:00 28.2 10 Sur 24 Sudoeste 0 957.2 -1.6 31
2019-05-31 16:00:00 28.1 7 Sudeste 22 Sudeste 0 957.5 -1.7 31
2019-05-31 15:00:00 27.1 10 Este 20 Sudeste 0 958.1 -1.3 30
2019-05-31 14:00:00 25.9 9 Sudeste 21 Sudeste 0 958.8 -0.7 34
2019-05-31 13:00:00 24.9 9 Sudeste 23 Sur 0 959.2 -0.5 36
2019-05-31 12:00:00 23.7 11 Sudeste 23 Sudeste 0 959.4 -0.2 37
2019-05-31 11:00:00 22.1 8 Este 20 Sudeste 0 959.5 0 43
2019-05-31 10:00:00 20.7 11 Sudeste 19 Sudeste 0 959.7 0.6 45
2019-05-31 09:00:00 19.4 8 Este 14 Sudeste 0 959.6 0.7 51
2019-05-31 08:00:00 16.6 6 Este 15 Este 0 959.5 0.6 61
2019-05-31 07:00:00 13.4 12 Este 17 Este 0 959.1 0.2 72
2019-05-31 06:00:00 12.7 9 Este 13 Este 0 958.9 -0.4 75
2019-05-31 05:00:00 13.6 10 Este 16 Este 0 958.9 -0.4 73
2019-05-31 04:00:00 13.8 12 Este 18 Este 0 958.9 -0.3 73
2019-05-31 03:00:00 14.4 12 Este 19 Este 0 959.3 0.3 71
2019-05-31 02:00:00 15.2 14 Este 26 Este 0 959.3 0.8 69
2019-05-31 01:00:00 16.3 15 Este 27 Este 0 959.2 1.6 64
2019-05-31 00:00:00 17.3 13 Este 17 Este 0 959 1.8 57
2019-05-30 23:00:00 19.1 10 Este 13 Este 0 958.5 1.7 48
2019-05-30 22:00:00 21.3 5 Sudeste 11 Sudeste 0 957.6 0.5 42
2019-05-30 21:00:00 24.3 5 Sur 12 Sur 0 957.2 -0.2 34
2019-05-30 20:00:00 26.6 5 Sudoeste 23 Oeste 0 956.8 -1.2 30
2019-05-30 19:00:00 27.6 7 Sudoeste 21 Sudoeste 0 957.1 -1.3 28
2019-05-30 18:00:00 27.6 9 Oeste 25 Sudoeste 0 957.4 -1.6 28
2019-05-30 17:00:00 27.3 9 Sudoeste 30 Sudoeste 0 958 -1.4 30
2019-05-30 16:00:00 26.4 9 Sudoeste 24 Oeste 0 958.4 -1.4 30
2019-05-30 15:00:00 25.3 7 Sur 17 Sur 0 959 -1.1 31
2019-05-30 14:00:00 23.7 6 Sudoeste 17 Oeste 0 959.4 -0.7 36
2019-05-30 13:00:00 22.3 7 Oeste 17 Oeste 0 959.8 -0.3 37
2019-05-30 12:00:00 20.3 6 Sudoeste 16 Sur 0 960.1 0.1 42
2019-05-30 11:00:00 18.3 6 Sudoeste 12 Oeste 0 960.1 0.6 54
2019-05-30 10:00:00 16.8 6 Sudoeste 10 Sudeste 0 960.1 1.1 57
2019-05-30 09:00:00 15.8 6 Sudeste 11 Sudeste 0 960 1.2 55
2019-05-30 08:00:00 13.8 2 Sudoeste 9 Nordeste 0 959.5 0.7 61
2019-05-30 07:00:00 11.5 6 Este 11 Este 0 959 0.1 66
2019-05-30 06:00:00 10.7 8 Este 11 Nordeste 0 958.8 -0.1 68
2019-05-30 05:00:00 9.3 6 Noroeste 11 Noroeste 0 958.8 0 79
2019-05-30 04:00:00 9.8 3 Oeste 10 Noroeste 0 958.9 0.4 76
2019-05-30 03:00:00 10.2 8 Noroeste 13 Noroeste 0 958.9 0.8 75
2019-05-30 02:00:00 10.8 6 Sudoeste 11 Sudoeste 0 958.8 1.3 72
2019-05-30 01:00:00 12.6 5 Noroeste 12 Noroeste 0 958.5 2 60
2019-05-30 00:00:00 13.1 6 Oeste 13 Oeste 0 958.1 2.4 59
2019-05-29 23:00:00 13.9 9 Oeste 16 Oeste 0 957.5 2.4 56
2019-05-29 22:00:00 15.4 6 Noroeste 17 Oeste 0 956.5 2 50
2019-05-29 21:00:00 17.8 8 Noroeste 23 Noroeste 0 955.7 1.3 44
2019-05-29 20:00:00 20 12 Noroeste 32 Oeste 0 955.1 0.6 39
2019-05-29 19:00:00 21.8 14 Noroeste 37 Noroeste 0 954.5 -0.3 33
2019-05-29 18:00:00 22.5 15 Noroeste 38 Noroeste 0 954.4 -0.6 29
2019-05-29 17:00:00 22.4 14 Noroeste 37 Oeste 0 954.5 -0.7 28
2019-05-29 16:00:00 23 11 Noroeste 33 Noroeste 0 954.8 -0.9 27
2019-05-29 15:00:00 22.7 11 Noroeste 28 Noroeste 0 955 -0.9 27
2019-05-29 14:00:00 22.2 9 Noroeste 28 Oeste 0 955.2 -1 28
2019-05-29 13:00:00 20.6 7 Sudoeste 22 Sudoeste 0 955.7 -0.6 29
2019-05-29 12:00:00 19.1 9 Noroeste 27 Norte 0 955.9 -0.1 32
2019-05-29 11:00:00 17.7 10 Noroeste 23 Norte 0 956.2 0.5 31
2019-05-29 10:00:00 16.1 9 Noroeste 21 Norte 0 956.3 1.2 38
2019-05-29 09:00:00 13.8 12 Noroeste 23 Norte 0 956 1.4 48
2019-05-29 08:00:00 10.9 5 Noroeste 12 Noroeste 0 955.7 1.2 59
2019-05-29 07:00:00 8.4 3 Sudoeste 11 Noroeste 0 955.1 0.8 67
2019-05-29 06:00:00 8.6 8 Noroeste 14 Noroeste 0 954.6 0.5 64
2019-05-29 05:00:00 8.5 5 Noroeste 21 Noroeste 0 954.5 0.6 67
2019-05-29 04:00:00 9.3 8 Noroeste 29 Noroeste 0 954.3 0.2 66
2019-05-29 03:00:00 10 14 Noroeste 29 Norte 0 954.1 1.1 62
2019-05-29 02:00:00 9.8 11 Oeste 32 Noroeste 0 953.9 1.6 68
2019-05-29 01:00:00 10.1 10 Noroeste 35 Noroeste 0 954.1 2.4 67
2019-05-29 00:00:00 10.6 14 Noroeste 44 Norte 0 953 1.6 63
2019-05-28 23:00:00 11.1 17 Noroeste 42 Oeste 0 952.3 1.4 59
2019-05-28 22:00:00 12 16 Noroeste 41 Noroeste 0 951.7 1.2 56
2019-05-28 21:00:00 13.7 15 Noroeste 51 Noroeste 0 951.4 1.5 50
2019-05-28 20:00:00 16.5 12 Noroeste 40 Noroeste 0 950.9 1.8 39
2019-05-28 19:00:00 17.4 18 Oeste 40 Noroeste 0 950.5 1.6 38
2019-05-28 18:00:00 18.6 16 Noroeste 44 Oeste 0 949.9 1 39
2019-05-28 17:00:00 20.5 15 Noroeste 46 Noroeste 0 949.1 0 35
2019-05-28 16:00:00 20.9 14 Noroeste 45 Oeste 0 948.9 -0.5 33
2019-05-28 15:00:00 20.8 16 Oeste 46 Noroeste 0 948.9 -0.8 34
2019-05-28 14:00:00 21.1 16 Oeste 42 Oeste 0 949.1 -0.5 35
2019-05-28 13:00:00 21 10 Noroeste 22 Norte 0 949.4 -0.4 30
2019-05-28 12:00:00 20.5 7 Noroeste 23 Noroeste 0 949.7 0.3 33
2019-05-28 11:00:00 18.5 7 Oeste 21 Oeste 0 949.6 0.6 34
2019-05-28 10:00:00 16.9 8 Oeste 19 Oeste 0 949.8 1.4 40
2019-05-28 09:00:00 14.3 7 Oeste 16 Noroeste 0 949.4 1.5 50
2019-05-28 08:00:00 11.3 6 Oeste 15 Oeste 0 949 1.3 61
2019-05-28 07:00:00 9.6 6 Oeste 14 Oeste 0 948.4 0.7 64
2019-05-28 06:00:00 9.6 5 Oeste 15 Noroeste 0 947.9 0 62
2019-05-28 05:00:00 9.8 6 Oeste 15 Noroeste 0 947.7 -0.5 61
2019-05-28 04:00:00 10.5 6 Oeste 14 Oeste 0 947.7 -0.6 62
2019-05-28 03:00:00 11.1 7 Oeste 17 Oeste 0 947.9 -0.3 62
2019-05-28 02:00:00 11.7 7 Oeste 19 Noroeste 0 948.2 0.1 62
2019-05-28 01:00:00 12 7 Oeste 21 Oeste 0 948.3 0.9 62
2019-05-28 00:00:00 13 8 Oeste 20 Oeste 0 948.2 1.5 66